Airfield :
LOGIN :

Register | Disclaimer

   EN    FR    IT 

 










Legend :    VFR   Marginal VFR   IFR   Intensive IFR   Very Intensive IFR
Visi :
Ceiling :
>= 8 km
>= 3000ft
5 to 8 km
1000 to 3000 ft
1500m to 5 km
500 to 1000 ft
800 to 1500m
200 to 500 ft
< 800m
< 200 ft
Symbols :   Thunderstorms  Fog  Heavy snow  Heavy precipitations  Wind > 20 kt
SIGMETs :     Misc.  Thunderstorms  Icing  Turbulence  Mountain Waves  Volcanic Ashes






- Airport Elevation : 374 ft
- IATA code : LIS


LPPT - Lisboa Portela

CURRENT METAR :
  • 270100Z 35013KT 310V010 9999 FEW016 18/15 Q1016

EXPIRED METARs :
  • 270030Z 34012KT 310V010 CAVOK 18/15 Q1017
  • 270000Z 35008KT 310V020 CAVOK 18/15 Q1017
  • 262330Z 34008KT 310V010 9999 FEW015 18/15 Q1017
  • 262300Z VRB03KT 9999 FEW015 18/15 Q1017
  • 262230Z 35009KT 9999 FEW015 18/15 Q1017

TAF TAF LPPT
Valid from the 27 at 00:00 until the 28 at 06:00 UTC


262300Z 2700/2806 34010KT CAVOK
TEMPO 2700/2708 9999 SCT012
BECMG 2712/2715 34015KT
TEMPO 2715/2721 34020G30KT
BECMG 2800/2803 34010KT



MET'MAP, your aeronautical weather chart ! - Copyright ORBIFLY December 2007 - Disclaimer

ORBIFLY MET'MAP TEAM :

Programming & Development : Alexandra Zaïnal
Concept & original design : Baudouin d'Aumeries
Assistance for programming : Marc-Olivier Méhu
Technical & hardware support : Manuel Goepfert

Contact : metmap@orbifly.com




SOURCES & CREDITS :

   NOAA